createdAt,value
2019-04-22T00:01:35.070Z,4.07
2019-04-22T00:04:11.127Z,3.83
2019-04-22T00:06:57.005Z,4.07
2019-04-22T00:09:38.819Z,4.10
2019-04-22T00:12:11.239Z,3.83
2019-04-22T00:14:30.808Z,4.70
2019-04-22T00:19:43.852Z,4.00
2019-04-22T00:22:20.536Z,4.00
2019-04-22T00:24:38.992Z,4.10
2019-04-22T00:27:14.036Z,4.87
2019-04-22T00:32:13.612Z,3.60
2019-04-22T00:34:43.990Z,4.00
2019-04-22T00:37:17.192Z,4.60
2019-04-22T00:39:47.632Z,4.20
2019-04-22T00:42:18.189Z,3.70
2019-04-22T00:44:55.869Z,3.90
2019-04-22T00:47:28.549Z,3.90
2019-04-22T00:52:22.306Z,3.97
2019-04-22T00:54:59.443Z,3.93
2019-04-22T00:57:29.661Z,3.77
2019-04-22T01:00:00.331Z,3.87
2019-04-22T01:02:27.798Z,5.17
2019-04-22T01:05:18.353Z,4.03
2019-04-22T01:07:27.055Z,4.10
2019-04-22T01:09:58.543Z,4.60
2019-04-22T01:12:28.485Z,4.77
2019-04-22T01:15:01.007Z,4.33
2019-04-22T01:17:27.736Z,4.70
2019-04-22T01:22:26.984Z,5.13
2019-04-22T01:24:55.851Z,3.93
2019-04-22T01:27:26.288Z,5.17
2019-04-22T01:29:51.519Z,4.93
2019-04-22T01:32:15.288Z,4.70
2019-04-22T01:34:56.534Z,3.57
2019-04-22T01:37:29.064Z,4.07
2019-04-22T01:40:14.706Z,4.00
2019-04-22T01:42:41.210Z,4.00
2019-04-22T01:45:16.536Z,4.00
2019-04-22T01:47:36.749Z,3.90
2019-04-22T01:50:06.202Z,3.77
2019-04-22T01:52:41.632Z,4.10
2019-04-22T01:55:22.605Z,4.20
2019-04-22T01:57:39.832Z,3.83
2019-04-22T02:00:00.998Z,4.63
2019-04-22T02:02:41.685Z,4.00
2019-04-22T02:05:15.767Z,4.17
2019-04-22T02:07:42.369Z,4.23
2019-04-22T02:10:13.973Z,5.00
2019-04-22T02:12:45.686Z,4.50
2019-04-22T02:15:17.185Z,4.33
2019-04-22T02:18:12.004Z,4.47
2019-04-22T02:20:23.379Z,4.53
2019-04-22T02:23:30.280Z,4.10
2019-04-22T02:25:41.441Z,4.63
2019-04-22T02:28:16.480Z,4.50
2019-04-22T02:31:01.909Z,4.47
2019-04-22T02:33:45.900Z,4.57
2019-04-22T02:36:15.074Z,5.60
2019-04-22T02:38:34.071Z,4.37
2019-04-22T02:41:13.433Z,4.63
2019-04-22T02:43:33.956Z,6.00
2019-04-22T02:46:10.696Z,4.73
2019-04-22T02:48:34.035Z,4.70
2019-04-22T02:50:54.614Z,5.10
2019-04-22T02:53:58.567Z,4.90
2019-04-22T02:56:05.590Z,6.00
2019-04-22T02:58:41.500Z,5.17
2019-04-22T03:01:05.423Z,5.00
2019-04-22T03:03:41.741Z,5.30
2019-04-22T03:06:07.601Z,4.90
2019-04-22T03:08:30.270Z,4.73
2019-04-22T03:11:07.678Z,5.37
2019-04-22T03:13:40.487Z,5.60
2019-04-22T03:16:10.767Z,4.90
2019-04-22T03:18:41.892Z,5.07
2019-04-22T03:28:49.722Z,5.83
2019-04-22T03:31:34.138Z,5.80
2019-04-22T03:34:22.668Z,6.03
2019-04-22T03:36:58.282Z,5.03
2019-04-22T03:39:04.461Z,5.20
2019-04-22T03:41:38.953Z,5.25
2019-04-22T03:44:10.879Z,5.28
2019-04-22T03:46:30.124Z,5.70
2019-04-22T03:49:12.146Z,6.35
2019-04-22T03:54:04.823Z,6.53
2019-04-22T03:56:56.142Z,5.60
2019-04-22T03:58:57.196Z,6.75
2019-04-22T04:01:36.920Z,5.10
2019-04-22T04:04:00.659Z,5.60
2019-04-22T04:06:36.588Z,6.33
2019-04-22T04:09:04.586Z,6.23
2019-04-22T04:11:38.425Z,6.63
2019-04-22T04:14:01.757Z,6.22
2019-04-22T04:16:30.413Z,5.33
2019-04-22T04:19:08.225Z,6.00
2019-04-22T04:21:41.992Z,5.30
2019-04-22T04:24:11.699Z,5.97
2019-04-22T04:26:49.715Z,5.70
2019-04-22T04:29:22.106Z,4.95
2019-04-22T04:34:08.147Z,6.05
2019-04-22T04:39:01.324Z,5.75
2019-04-22T04:41:42.904Z,5.30
2019-04-22T04:46:45.126Z,5.58
2019-04-22T04:49:07.457Z,5.97
2019-04-22T04:51:37.624Z,5.50
2019-04-22T04:54:12.907Z,5.10
2019-04-22T04:56:36.282Z,5.70
2019-04-22T04:59:16.731Z,5.20
2019-04-22T05:01:39.783Z,5.70
2019-04-22T05:11:45.195Z,5.60
2019-04-22T05:14:09.476Z,5.60
2019-04-22T05:24:09.500Z,6.50
2019-04-22T05:26:34.243Z,5.67
2019-04-22T05:29:08.489Z,5.37
2019-04-22T05:31:37.582Z,5.50
2019-04-22T05:34:04.405Z,4.60
2019-04-22T05:36:38.478Z,4.93
2019-04-22T05:39:07.486Z,5.23
2019-04-22T05:41:39.965Z,5.60
2019-04-22T05:44:02.838Z,4.70
2019-04-22T05:46:36.082Z,5.80
2019-04-22T05:49:09.833Z,5.50
2019-04-22T05:51:37.058Z,5.50
2019-04-22T05:54:12.914Z,5.57
2019-04-22T05:59:03.559Z,5.10
2019-04-22T06:01:45.660Z,5.80
2019-04-22T06:04:23.249Z,5.87
2019-04-22T06:06:35.349Z,6.20
2019-04-22T06:09:26.066Z,6.47
2019-04-22T06:11:33.887Z,6.47
2019-04-22T06:14:07.713Z,5.60
2019-04-22T06:16:45.803Z,6.00
2019-04-22T06:19:14.383Z,5.87
2019-04-22T06:21:41.787Z,5.40
2019-04-22T06:24:27.511Z,5.93
2019-04-22T06:26:51.908Z,6.30
2019-04-22T06:36:52.229Z,6.20
2019-04-22T06:39:21.139Z,5.70
2019-04-22T06:41:47.781Z,5.50
2019-04-22T06:44:20.772Z,4.70
2019-04-22T06:46:52.074Z,5.37
2019-04-22T06:49:29.046Z,5.70
2019-04-22T06:52:07.991Z,5.67
2019-04-22T06:54:23.420Z,5.47
2019-04-22T06:56:53.316Z,5.07
2019-04-22T06:59:18.081Z,5.20
2019-04-22T07:01:48.628Z,5.03
2019-04-22T07:04:16.758Z,5.27
2019-04-22T07:06:54.141Z,5.10
2019-04-22T07:11:49.478Z,4.87
2019-04-22T07:14:18.123Z,6.40
2019-04-22T07:16:54.659Z,6.00
2019-04-22T07:19:20.622Z,5.77
2019-04-22T07:21:50.606Z,5.30
2019-04-22T07:24:35.732Z,5.63
2019-04-22T07:26:53.013Z,6.00
2019-04-22T07:29:39.142Z,5.60
2019-04-22T07:31:56.313Z,5.10
2019-04-22T07:34:28.540Z,6.27
2019-04-22T07:37:13.418Z,4.93
2019-04-22T07:39:27.954Z,6.10
2019-04-22T07:41:51.516Z,5.70
2019-04-22T07:47:04.615Z,7.63
2019-04-22T07:49:26.890Z,6.03
2019-04-22T07:52:01.061Z,7.20
2019-04-22T07:54:25.804Z,6.13
2019-04-22T07:57:00.681Z,6.90
2019-04-22T07:59:28.070Z,5.77
2019-04-22T08:01:55.893Z,6.77
2019-04-22T08:04:54.137Z,6.60
2019-04-22T08:06:58.670Z,6.80
2019-04-22T08:14:30.078Z,7.37
2019-04-22T08:19:26.919Z,6.20
2019-04-22T08:24:35.986Z,6.77
2019-04-22T08:27:00.926Z,7.60
2019-04-22T08:29:43.809Z,7.00
2019-04-22T08:32:02.196Z,6.43
2019-04-22T08:34:34.239Z,7.37
2019-04-22T08:39:39.077Z,7.13
2019-04-22T08:42:15.859Z,6.67
2019-04-22T08:47:11.211Z,6.63
2019-04-22T08:49:42.480Z,6.17
2019-04-22T08:52:08.696Z,5.80
2019-04-22T08:54:36.208Z,5.47
2019-04-22T08:57:10.761Z,5.53
2019-04-22T08:59:36.972Z,5.40
2019-04-22T09:02:13.294Z,5.33
2019-04-22T09:04:39.208Z,5.13
2019-04-22T09:12:14.298Z,5.10
2019-04-22T09:14:42.180Z,3.93
2019-04-22T09:17:13.412Z,4.13
2019-04-22T09:19:40.828Z,3.80
2019-04-22T09:22:13.564Z,4.30
2019-04-22T09:24:42.596Z,4.10
2019-04-22T09:27:22.637Z,3.77
2019-04-22T09:32:11.534Z,4.03
2019-04-22T09:34:47.275Z,4.30
2019-04-22T09:37:20.745Z,3.73
2019-04-22T09:39:41.509Z,4.50
2019-04-22T09:42:10.748Z,4.33
2019-04-22T09:47:11.609Z,4.03
2019-04-22T09:49:51.908Z,4.00
2019-04-22T09:52:34.287Z,3.50
2019-04-22T09:54:57.861Z,3.73
2019-04-22T09:57:18.353Z,3.83
2019-04-22T09:59:56.321Z,4.97
2019-04-22T10:02:28.117Z,3.90
2019-04-22T10:04:46.689Z,3.97
2019-04-22T10:07:19.840Z,3.83
2019-04-22T10:12:19.251Z,3.77
2019-04-22T10:17:12.383Z,3.97
2019-04-22T10:19:48.006Z,3.80
2019-04-22T10:24:45.377Z,3.93
2019-04-22T10:27:14.048Z,5.70
2019-04-22T10:29:58.286Z,4.17
2019-04-22T10:32:17.584Z,3.90
2019-04-22T10:34:34.672Z,4.13
2019-04-22T10:37:02.070Z,4.43
2019-04-22T10:39:39.286Z,3.47
2019-04-22T10:41:56.889Z,4.00
2019-04-22T10:44:26.853Z,4.00
2019-04-22T10:46:56.060Z,3.13
2019-04-22T10:49:24.710Z,3.70
2019-04-22T10:51:53.217Z,3.27
2019-04-22T10:54:23.380Z,3.70
2019-04-22T10:56:52.797Z,3.70
2019-04-22T10:59:22.605Z,3.60
2019-04-22T11:01:51.152Z,3.87
2019-04-22T11:04:21.526Z,3.60
2019-04-22T11:06:56.011Z,4.00
2019-04-22T11:09:23.346Z,3.97
2019-04-22T11:11:59.402Z,3.43
2019-04-22T11:14:21.098Z,3.70
2019-04-22T11:16:49.832Z,3.50
2019-04-22T11:19:19.422Z,3.97
2019-04-22T11:21:59.910Z,3.80
2019-04-22T11:24:18.826Z,3.43
2019-04-22T11:26:47.462Z,3.53
2019-04-22T11:29:17.319Z,4.20
2019-04-22T11:31:46.444Z,3.43
2019-04-22T11:34:15.468Z,4.10
2019-04-22T11:36:45.000Z,3.30
2019-04-22T11:39:15.453Z,4.87
2019-04-22T11:41:44.294Z,3.80
2019-04-22T11:44:13.180Z,3.20
2019-04-22T11:46:43.136Z,3.53
2019-04-22T11:49:12.153Z,3.50
2019-04-22T11:51:42.090Z,3.60
2019-04-22T11:54:10.885Z,3.33
2019-04-22T11:56:40.932Z,3.90
2019-04-22T11:59:10.931Z,3.60
2019-04-22T12:01:39.622Z,3.50
2019-04-22T12:04:09.619Z,3.63
2019-04-22T12:06:39.920Z,3.70
2019-04-22T12:09:12.165Z,4.00
2019-04-22T12:11:40.948Z,3.40
2019-04-22T12:14:09.852Z,3.80
2019-04-22T12:16:39.317Z,3.37
2019-04-22T12:19:09.197Z,3.30
2019-04-22T12:21:39.193Z,3.63
2019-04-22T12:24:09.100Z,3.40
2019-04-22T12:26:38.152Z,3.37
2019-04-22T12:29:07.084Z,3.70
2019-04-22T12:31:35.882Z,3.60
2019-04-22T12:34:06.018Z,3.67
2019-04-22T12:36:36.132Z,3.90
2019-04-22T12:39:09.749Z,4.37
2019-04-22T12:41:40.054Z,3.47
2019-04-22T12:44:09.387Z,3.80
2019-04-22T12:46:38.462Z,3.37
2019-04-22T12:49:09.974Z,3.67
2019-04-22T12:51:39.047Z,3.53
2019-04-22T12:54:08.832Z,3.50
2019-04-22T12:56:39.528Z,3.63
2019-04-22T13:02:18.802Z,3.30
2019-04-22T13:04:54.378Z,3.53
2019-04-22T13:09:12.516Z,3.70
2019-04-22T13:11:02.899Z,3.63
2019-04-22T13:13:29.044Z,3.73
2019-04-22T13:15:59.210Z,3.57
2019-04-22T13:18:37.454Z,3.73
2019-04-22T13:21:02.786Z,3.40
2019-04-22T13:23:31.797Z,3.90
2019-04-22T13:26:05.140Z,3.43
2019-04-22T13:28:54.753Z,3.77
2019-04-22T13:31:24.572Z,3.87
2019-04-22T13:33:57.234Z,3.50
2019-04-22T13:36:25.545Z,3.27
2019-04-22T13:38:54.922Z,3.50
2019-04-22T13:41:33.007Z,3.20
2019-04-22T13:43:55.795Z,3.60
2019-04-22T13:46:26.066Z,4.27
2019-04-22T13:49:26.999Z,3.63
2019-04-22T13:52:05.320Z,3.40
2019-04-22T13:57:14.803Z,3.60
2019-04-22T13:59:31.231Z,3.90
2019-04-22T14:02:12.756Z,3.37
2019-04-22T14:04:43.105Z,4.13
2019-04-22T14:07:12.679Z,4.47
2019-04-22T14:09:42.346Z,4.27
2019-04-22T14:12:13.423Z,3.73
2019-04-22T14:14:42.814Z,3.30
2019-04-22T14:17:11.597Z,3.47
2019-04-22T14:19:40.337Z,3.40
2019-04-22T14:22:09.620Z,3.60
2019-04-22T14:24:38.676Z,4.23
2019-04-22T14:27:22.932Z,3.93
2019-04-22T14:29:37.797Z,4.17
2019-04-22T14:32:14.600Z,4.80
2019-04-22T14:34:38.225Z,3.83
2019-04-22T14:37:06.989Z,4.10
2019-04-22T14:39:35.811Z,4.03
2019-04-22T14:42:24.297Z,4.20
2019-04-22T14:47:47.652Z,4.20
2019-04-22T14:50:00.642Z,4.23
2019-04-22T14:52:31.382Z,3.70
2019-04-22T14:54:49.220Z,4.27
2019-04-22T14:57:07.314Z,4.17
2019-04-22T14:59:37.480Z,4.00
2019-04-22T15:02:07.593Z,4.67
2019-04-22T15:04:37.294Z,4.10
2019-04-22T15:07:07.337Z,3.57
2019-04-22T15:09:37.651Z,4.40
2019-04-22T15:12:16.395Z,3.87
2019-04-22T15:14:37.549Z,4.47
2019-04-22T15:17:20.824Z,4.00
2019-04-22T15:20:07.932Z,4.80
2019-04-22T15:22:36.963Z,4.43
2019-04-22T15:25:08.215Z,4.67
2019-04-22T15:27:37.357Z,4.40
2019-04-22T15:30:07.578Z,4.70
2019-04-22T15:32:36.200Z,4.53
2019-04-22T15:35:07.232Z,4.90
2019-04-22T15:37:37.264Z,4.70
2019-04-22T15:40:08.868Z,3.97
2019-04-22T15:42:41.480Z,4.50
2019-04-22T15:45:08.954Z,4.50
2019-04-22T15:47:40.007Z,4.40
2019-04-22T15:50:12.252Z,4.43
2019-04-22T15:52:49.414Z,4.87
2019-04-22T15:55:11.235Z,3.93
2019-04-22T15:57:41.974Z,3.97
2019-04-22T16:00:25.071Z,4.60
2019-04-22T16:02:41.440Z,4.10
2019-04-22T16:05:10.683Z,4.33
2019-04-22T16:07:40.035Z,4.63
2019-04-22T16:10:10.089Z,4.50
2019-04-22T16:12:51.530Z,5.63
2019-04-22T16:15:11.133Z,4.37
2019-04-22T16:17:40.421Z,4.57
2019-04-22T16:20:09.264Z,5.13
2019-04-22T16:22:57.120Z,4.30
2019-04-22T16:25:42.959Z,4.57
2019-04-22T16:28:13.020Z,4.83
2019-04-22T16:30:43.507Z,4.50
2019-04-22T16:33:15.061Z,4.87
2019-04-22T16:35:44.895Z,4.77
2019-04-22T16:38:14.937Z,4.57
2019-04-22T16:40:44.998Z,4.60
2019-04-22T16:43:13.879Z,4.30
2019-04-22T16:45:43.515Z,5.00
2019-04-22T16:48:13.546Z,4.40
2019-04-22T16:50:43.625Z,4.40
2019-04-22T16:53:14.141Z,4.33
2019-04-22T16:55:44.569Z,4.87
2019-04-22T16:58:14.674Z,3.97
2019-04-22T17:00:44.982Z,4.50
2019-04-22T17:03:22.587Z,4.20
2019-04-22T17:06:09.897Z,4.70
2019-04-22T17:08:39.074Z,4.23
2019-04-22T17:11:09.701Z,4.80
2019-04-22T17:13:40.388Z,3.70
2019-04-22T17:16:09.970Z,5.03
2019-04-22T17:18:39.431Z,3.57
2019-04-22T17:21:10.634Z,4.00
2019-04-22T17:23:39.124Z,4.37
2019-04-22T17:26:10.435Z,4.30
2019-04-22T17:28:39.634Z,4.77
2019-04-22T17:31:08.835Z,4.77
2019-04-22T17:33:39.097Z,3.90
2019-04-22T17:36:09.332Z,4.20
2019-04-22T17:38:48.594Z,4.10
2019-04-22T17:41:22.032Z,4.17
2019-04-22T17:44:06.564Z,4.70
2019-04-22T17:46:30.493Z,4.33
2019-04-22T17:49:04.344Z,3.70
2019-04-22T17:51:38.196Z,4.17
2019-04-22T17:54:12.867Z,4.40
2019-04-22T17:56:41.942Z,3.70
2019-04-22T17:59:13.832Z,4.13
2019-04-22T18:01:41.739Z,3.77
2019-04-22T18:03:53.255Z,3.93
2019-04-22T18:06:46.961Z,3.90
2019-04-22T18:09:08.095Z,3.60
2019-04-22T18:11:56.265Z,4.07
2019-04-22T18:14:41.446Z,3.43
2019-04-22T18:17:00.207Z,4.57
2019-04-22T18:19:31.975Z,3.93
2019-04-22T18:21:51.740Z,5.13
2019-04-22T18:24:19.963Z,4.17
2019-04-22T18:27:18.938Z,4.03
2019-04-22T18:29:32.968Z,4.87
2019-04-22T18:31:54.467Z,4.33
2019-04-22T18:34:25.534Z,4.37
2019-04-22T18:37:01.286Z,4.10
2019-04-22T18:39:40.596Z,5.23
2019-04-22T18:42:00.395Z,4.87
2019-04-22T18:44:35.163Z,4.50
2019-04-22T18:47:01.258Z,5.63
2019-04-22T18:49:36.047Z,4.87
2019-04-22T18:52:08.853Z,4.70
2019-04-22T18:54:58.010Z,4.27
2019-04-22T18:57:27.343Z,4.53
2019-04-22T18:59:44.838Z,4.57
2019-04-22T19:02:13.965Z,4.77
2019-04-22T19:04:53.349Z,3.90
2019-04-22T19:07:36.889Z,4.47
2019-04-22T19:10:10.704Z,4.00
2019-04-22T19:15:04.126Z,4.10
2019-04-22T19:17:39.234Z,4.53
2019-04-22T19:20:13.328Z,4.43
2019-04-22T19:22:36.297Z,4.43
2019-04-22T19:25:04.127Z,4.80
2019-04-22T19:27:35.658Z,4.40
2019-04-22T19:30:11.506Z,4.30
2019-04-22T19:32:40.155Z,4.17
2019-04-22T19:35:04.452Z,3.70
2019-04-22T19:37:32.677Z,4.33
2019-04-22T19:42:50.523Z,3.70
2019-04-22T19:45:08.832Z,3.93
2019-04-22T19:47:50.436Z,3.70
2019-04-22T19:50:21.345Z,4.10
2019-04-22T19:52:41.378Z,3.70
2019-04-22T19:55:12.301Z,4.07
2019-04-22T19:57:42.097Z,4.10
2019-04-22T20:00:11.531Z,3.40
2019-04-22T20:02:42.504Z,3.90
2019-04-22T20:05:25.923Z,4.67
2019-04-22T20:07:45.845Z,4.07
2019-04-22T20:10:25.293Z,3.70
2019-04-22T20:12:50.072Z,3.93
2019-04-22T20:15:22.729Z,3.77
2019-04-22T20:18:19.127Z,4.37
2019-04-22T20:20:31.720Z,4.67
2019-04-22T20:23:00.329Z,4.07
2019-04-22T20:25:27.247Z,3.50
2019-04-22T20:28:01.304Z,3.67
2019-04-22T20:30:34.640Z,3.57
2019-04-22T20:32:56.288Z,3.73
2019-04-22T20:35:32.776Z,3.07
2019-04-22T20:38:03.925Z,3.77
2019-04-22T20:40:38.355Z,4.27
2019-04-22T20:43:10.380Z,4.00
2019-04-22T20:45:36.442Z,4.17
2019-04-22T20:47:53.548Z,3.70
2019-04-22T20:50:35.890Z,3.93
2019-04-22T20:53:14.605Z,3.90
2019-04-22T20:55:29.569Z,3.50
2019-04-22T20:58:06.215Z,3.70
2019-04-22T21:00:35.152Z,3.77
2019-04-22T21:02:57.489Z,3.80
2019-04-22T21:05:31.391Z,4.20
2019-04-22T21:08:11.374Z,3.50
2019-04-22T21:10:31.327Z,4.53
2019-04-22T21:13:01.259Z,3.90
2019-04-22T21:15:44.124Z,4.20
2019-04-22T21:18:05.599Z,3.60
2019-04-22T21:20:43.295Z,3.60
2019-04-22T21:23:14.291Z,3.70
2019-04-22T21:25:29.205Z,4.10
2019-04-22T21:28:18.123Z,4.33
2019-04-22T21:30:37.550Z,4.10
2019-04-22T21:33:06.694Z,4.30
2019-04-22T21:35:55.055Z,4.10
2019-04-22T21:38:14.635Z,3.90
2019-04-22T21:40:39.779Z,3.80
2019-04-22T21:43:12.310Z,3.83
2019-04-22T21:45:39.177Z,4.20
2019-04-22T21:48:20.187Z,4.30
2019-04-22T21:53:25.128Z,4.67
2019-04-22T21:55:50.437Z,4.13
2019-04-22T21:58:38.585Z,4.77
2019-04-22T22:01:14.573Z,3.50
2019-04-22T22:03:40.114Z,3.83
2019-04-22T22:06:01.479Z,3.73
2019-04-22T22:08:44.103Z,4.33
2019-04-22T22:11:06.484Z,3.47
2019-04-22T22:13:39.258Z,4.37
2019-04-22T22:16:09.177Z,4.33
2019-04-22T22:18:35.502Z,4.00
2019-04-22T22:21:25.558Z,4.63
2019-04-22T22:23:42.480Z,4.00
2019-04-22T22:26:05.713Z,3.93
2019-04-22T22:28:52.971Z,4.40
2019-04-22T22:31:22.248Z,4.17
2019-04-22T22:33:43.274Z,4.77
2019-04-22T22:36:15.232Z,3.83
2019-04-22T22:38:45.539Z,4.20
2019-04-22T22:40:58.287Z,4.50
2019-04-22T22:43:35.254Z,4.17
2019-04-22T22:46:11.945Z,4.97
2019-04-22T22:48:51.528Z,3.60
2019-04-22T22:51:16.432Z,4.43
2019-04-22T22:53:54.688Z,4.10
2019-04-22T22:56:25.354Z,4.00
2019-04-22T22:58:52.814Z,4.37
2019-04-22T23:01:23.541Z,5.00
2019-04-22T23:03:57.670Z,4.20
2019-04-22T23:06:32.818Z,4.50
2019-04-22T23:09:02.594Z,4.93
2019-04-22T23:11:47.867Z,4.80
2019-04-22T23:14:05.380Z,4.67
2019-04-22T23:16:19.373Z,4.47
2019-04-22T23:19:06.439Z,4.57
2019-04-22T23:21:39.729Z,4.43
2019-04-22T23:24:22.713Z,4.43
2019-04-22T23:27:03.198Z,4.70
2019-04-22T23:29:28.521Z,4.10
2019-04-22T23:32:09.197Z,4.90
2019-04-22T23:34:50.151Z,5.07
2019-04-22T23:37:21.811Z,4.43
2019-04-22T23:40:02.181Z,4.10
2019-04-22T23:42:27.404Z,4.70
2019-04-22T23:44:56.626Z,4.10
2019-04-22T23:47:24.295Z,4.17
2019-04-22T23:49:56.112Z,5.93
2019-04-22T23:52:30.430Z,4.87
2019-04-22T23:55:03.621Z,4.50
2019-04-22T23:57:33.212Z,4.50
